createdAt,value
2018-09-15T00:03:41.417Z,101501.00
2018-09-15T00:09:44.895Z,101516.00
2018-09-15T00:15:48.313Z,101503.00
2018-09-15T00:21:52.391Z,101498.00
2018-09-15T00:27:55.829Z,101503.00
2018-09-15T00:33:59.389Z,101507.00
2018-09-15T00:40:03.518Z,101506.00
2018-09-15T00:46:07.727Z,101503.00
2018-09-15T00:52:11.111Z,101510.00
2018-09-15T00:58:14.536Z,101508.00
2018-09-15T01:04:17.971Z,101509.00
2018-09-15T01:10:21.403Z,101506.00
2018-09-15T01:16:24.922Z,101508.00
2018-09-15T01:22:28.397Z,101512.00
2018-09-15T01:28:31.768Z,101511.00
2018-09-15T01:34:35.833Z,101513.00
2018-09-15T01:40:39.835Z,101504.00
2018-09-15T01:46:43.919Z,101504.00
2018-09-15T01:52:47.320Z,101498.00
2018-09-15T01:58:50.823Z,101507.00
2018-09-15T02:04:54.408Z,101499.00
2018-09-15T02:10:58.359Z,101493.00
2018-09-15T02:17:01.835Z,101494.00
2018-09-15T02:23:06.282Z,101498.00
2018-09-15T02:29:09.635Z,101499.00
2018-09-15T02:35:13.184Z,101504.00
2018-09-15T02:41:16.620Z,101508.00
2018-09-15T02:47:20.125Z,101500.00
2018-09-15T02:53:28.073Z,101510.00
2018-09-15T02:59:31.901Z,101512.00
2018-09-15T03:05:35.263Z,101507.00
2018-09-15T03:11:38.680Z,101516.00
2018-09-15T03:17:42.240Z,101507.00
2018-09-15T03:23:46.608Z,101513.00
2018-09-15T03:29:50.074Z,101517.00
2018-09-15T03:35:53.585Z,101525.00
2018-09-15T03:41:57.084Z,101514.00
2018-09-15T03:48:02.161Z,101523.00
2018-09-15T03:54:05.815Z,101521.00
2018-09-15T04:00:11.227Z,101521.00
2018-09-15T04:06:15.216Z,101521.00
2018-09-15T04:12:18.577Z,101535.00
2018-09-15T04:18:22.036Z,101543.00
2018-09-15T04:24:26.008Z,101548.00
2018-09-15T04:30:29.716Z,101545.00
2018-09-15T04:36:33.111Z,101543.00
2018-09-15T04:42:36.473Z,101552.00
2018-09-15T04:48:40.490Z,101545.00
2018-09-15T04:54:49.396Z,101552.00
2018-09-15T05:00:52.828Z,101552.00
2018-09-15T05:06:56.185Z,101560.00
2018-09-15T05:12:59.755Z,101568.00
2018-09-15T05:19:03.200Z,101568.00
2018-09-15T05:25:07.616Z,101565.00
2018-09-15T05:31:11.083Z,101575.00
2018-09-15T05:37:15.166Z,101577.00
2018-09-15T05:43:18.593Z,101582.00
2018-09-15T05:49:22.848Z,101592.00
2018-09-15T05:55:26.244Z,101593.00
2018-09-15T06:01:29.860Z,101605.00
2018-09-15T06:07:33.598Z,101625.00
2018-09-15T06:13:37.011Z,101626.00
2018-09-15T06:19:40.418Z,101624.00
2018-09-15T06:25:43.872Z,101642.00
2018-09-15T06:31:47.366Z,101646.00
2018-09-15T06:37:51.905Z,101648.00
2018-09-15T06:43:55.803Z,101659.00
2018-09-15T06:50:00.478Z,101661.00
2018-09-15T06:56:04.450Z,101657.00
2018-09-15T07:02:08.019Z,101649.00
2018-09-15T07:08:12.339Z,101667.00
2018-09-15T07:14:15.796Z,101685.00
2018-09-15T07:20:19.528Z,101689.00
2018-09-15T07:26:23.049Z,101703.00
2018-09-15T07:32:26.507Z,101697.00
2018-09-15T07:38:29.937Z,101704.00
2018-09-15T07:44:33.404Z,101716.00
2018-09-15T07:50:36.814Z,101711.00
2018-09-15T07:56:40.357Z,101709.00
2018-09-15T08:02:44.594Z,101719.00
2018-09-15T08:08:48.763Z,101716.00
2018-09-15T08:14:52.340Z,101723.00
2018-09-15T08:20:55.838Z,101734.00
2018-09-15T08:26:59.661Z,101736.00
2018-09-15T08:33:03.377Z,101737.00
2018-09-15T08:39:08.322Z,101736.00
2018-09-15T08:45:11.854Z,101750.00
2018-09-15T08:51:16.517Z,101749.00
2018-09-15T08:57:24.078Z,101750.00
2018-09-15T09:03:27.489Z,101755.00
2018-09-15T09:09:30.885Z,101755.00
2018-09-15T09:15:35.975Z,101770.00
2018-09-15T09:21:39.652Z,101772.00
2018-09-15T09:27:43.367Z,101779.00
2018-09-15T09:33:47.160Z,101781.00
2018-09-15T09:39:50.771Z,101775.00
2018-09-15T09:45:54.406Z,101774.00
2018-09-15T09:51:57.816Z,101780.00
2018-09-15T09:58:01.306Z,101768.00
2018-09-15T10:04:04.798Z,101766.00
2018-09-15T10:10:08.187Z,101765.00
2018-09-15T10:16:11.731Z,101762.00
2018-09-15T10:22:15.137Z,101767.00
2018-09-15T10:28:18.544Z,101757.00
2018-09-15T10:34:22.003Z,101757.00
2018-09-15T10:40:26.227Z,101755.00
2018-09-15T10:46:29.720Z,101766.00
2018-09-15T10:52:33.134Z,101771.00
2018-09-15T10:58:36.591Z,101762.00
2018-09-15T11:04:41.258Z,101766.00
2018-09-15T11:10:45.774Z,101761.00
2018-09-15T11:16:49.235Z,101759.00
2018-09-15T11:22:52.820Z,101772.00
2018-09-15T11:28:56.205Z,101758.00
2018-09-15T11:34:59.623Z,101761.00
2018-09-15T11:41:03.082Z,101749.00
2018-09-15T11:47:06.674Z,101745.00
2018-09-15T11:53:10.744Z,101753.00
2018-09-15T11:59:14.216Z,101756.00
2018-09-15T12:05:17.765Z,101765.00
2018-09-15T12:11:22.415Z,101766.00
2018-09-15T12:17:26.100Z,101775.00
2018-09-15T12:23:29.528Z,101767.00
2018-09-15T12:29:32.961Z,101787.00
2018-09-15T12:35:36.507Z,101787.00
2018-09-15T12:41:39.900Z,101798.00
2018-09-15T12:47:43.501Z,101804.00
2018-09-15T12:53:46.852Z,101800.00
2018-09-15T12:59:50.281Z,101800.00
2018-09-15T13:05:53.889Z,101791.00
2018-09-15T13:11:57.360Z,101788.00
2018-09-15T13:18:01.590Z,101786.00
2018-09-15T13:24:05.184Z,101788.00
2018-09-15T13:30:08.733Z,101787.00
2018-09-15T13:36:12.106Z,101773.00
2018-09-15T13:42:15.606Z,101769.00
2018-09-15T13:48:19.371Z,101771.00
2018-09-15T13:54:22.806Z,101782.00
2018-09-15T14:00:26.337Z,101792.00
2018-09-15T14:06:30.476Z,101798.00
2018-09-15T14:12:34.113Z,101805.00
2018-09-15T14:18:37.585Z,101803.00
2018-09-15T14:24:41.597Z,101793.00
2018-09-15T14:30:45.005Z,101782.00
2018-09-15T14:36:49.012Z,101774.00
2018-09-15T14:42:52.486Z,101786.00
2018-09-15T14:48:56.883Z,101785.00
2018-09-15T14:55:00.328Z,101777.00
2018-09-15T15:01:03.834Z,101787.00
2018-09-15T15:07:07.282Z,101784.00
2018-09-15T15:13:10.709Z,101779.00
2018-09-15T15:19:14.132Z,101779.00
2018-09-15T15:25:17.533Z,101772.00
2018-09-15T15:31:21.220Z,101765.00
2018-09-15T15:37:24.778Z,101774.00
2018-09-15T15:43:28.795Z,101772.00
2018-09-15T15:49:32.473Z,101778.00
2018-09-15T15:55:36.014Z,101780.00
2018-09-15T16:01:39.412Z,101777.00
2018-09-15T16:07:43.011Z,101786.00
2018-09-15T16:13:46.571Z,101780.00
2018-09-15T16:19:49.997Z,101774.00
2018-09-15T16:25:54.529Z,101778.00
2018-09-15T16:31:57.971Z,101779.00
2018-09-15T16:38:01.545Z,101781.00
2018-09-15T16:44:05.333Z,101778.00
2018-09-15T16:50:08.905Z,101782.00
2018-09-15T16:56:12.553Z,101779.00
2018-09-15T17:02:15.963Z,101787.00
2018-09-15T17:08:19.440Z,101784.00
2018-09-15T17:14:23.650Z,101787.00
2018-09-15T17:20:27.055Z,101791.00
2018-09-15T17:26:30.456Z,101788.00
2018-09-15T17:32:33.889Z,101796.00
2018-09-15T17:38:37.412Z,101795.00
2018-09-15T17:44:40.882Z,101795.00
2018-09-15T17:50:44.294Z,101809.00
2018-09-15T17:56:47.829Z,101811.00
2018-09-15T18:02:51.256Z,101812.00
2018-09-15T18:08:54.721Z,101832.00
2018-09-15T18:14:58.154Z,101818.00
2018-09-15T18:21:01.618Z,101828.00
2018-09-15T18:27:05.871Z,101831.00
2018-09-15T18:33:09.580Z,101836.00
2018-09-15T18:39:13.049Z,101834.00
2018-09-15T18:45:16.461Z,101838.00
2018-09-15T18:51:19.992Z,101842.00
2018-09-15T18:57:23.443Z,101854.00
2018-09-15T19:03:26.888Z,101855.00
2018-09-15T19:09:30.316Z,101860.00
2018-09-15T19:15:33.779Z,101865.00
2018-09-15T19:21:37.246Z,101864.00
2018-09-15T19:27:40.777Z,101871.00
2018-09-15T19:33:45.668Z,101876.00
2018-09-15T19:39:49.293Z,101871.00
2018-09-15T19:45:52.768Z,101888.00
2018-09-15T19:51:58.693Z,101890.00
2018-09-15T19:58:03.095Z,101889.00
2018-09-15T20:04:06.687Z,101901.00
2018-09-15T20:10:10.175Z,101891.00
2018-09-15T20:16:12.044Z,101901.00
2018-09-15T20:22:15.887Z,101902.00
2018-09-15T20:28:19.568Z,101904.00
2018-09-15T20:34:23.047Z,101901.00
2018-09-15T20:40:26.656Z,101895.00
2018-09-15T20:46:30.605Z,101906.00
2018-09-15T20:52:34.315Z,101865.00
2018-09-15T20:58:38.393Z,101890.00
2018-09-15T21:04:42.413Z,101897.00
2018-09-15T21:10:46.087Z,101894.00
2018-09-15T21:16:49.886Z,101884.00
2018-09-15T21:22:53.326Z,101887.00
2018-09-15T21:28:56.798Z,101883.00
2018-09-15T21:35:00.249Z,101882.00
2018-09-15T21:41:03.613Z,101898.00
2018-09-15T21:47:07.089Z,101911.00
2018-09-15T21:53:10.796Z,101903.00
2018-09-15T21:59:15.613Z,101904.00
2018-09-15T22:05:19.048Z,101898.00
2018-09-15T22:11:22.733Z,101892.00
2018-09-15T22:17:26.261Z,101895.00
2018-09-15T22:23:30.904Z,101886.00
2018-09-15T22:29:34.319Z,101891.00
2018-09-15T22:35:37.683Z,101883.00
2018-09-15T22:41:41.976Z,101884.00
2018-09-15T22:47:45.435Z,101887.00
2018-09-15T22:53:49.801Z,101879.00
2018-09-15T22:59:53.205Z,101881.00
2018-09-15T23:05:56.676Z,101874.00
2018-09-15T23:12:00.115Z,101878.00
2018-09-15T23:18:03.687Z,101880.00
2018-09-15T23:24:07.139Z,101881.00
2018-09-15T23:30:10.609Z,101880.00
2018-09-15T23:36:14.041Z,101883.00
2018-09-15T23:42:17.536Z,101881.00
2018-09-15T23:48:20.906Z,101875.00
2018-09-15T23:54:24.324Z,101875.00
